Time;durP1;ratioP1;P1;durP2;ratioP2;P2;SDS_P1;SDS_P2;PMS_P1;PMS_P2;Temp;Humidity;BMP_temperature;BMP_pressure;BME280_temperature;BME280_humidity;BME280_pressure;Samples;Min_cycle;Max_cycle;Signal;HPM_P1;HPM_P2
2024/01/15 00:00:01;;;;;;;15.52;3.58;;;5.00;1.00;;;;;;5032849;28;20073;-76
2024/01/15 00:02:26;;;;;;;13.20;2.83;;;5.20;1.00;;;;;;5063675;28;20040;-77
2024/01/15 00:04:52;;;;;;;15.77;2.80;;;5.60;1.00;;;;;;5051813;28;20028;-78
2024/01/15 00:07:18;;;;;;;5.88;1.45;;;6.70;1.00;;;;;;5035792;28;20056;-79
2024/01/15 00:09:43;;;;;;;8.00;1.63;;;6.00;99.90;;;;;;5036392;28;20036;-79
2024/01/15 00:12:09;;;;;;;6.43;1.45;;;5.70;99.90;;;;;;5053262;28;20044;-79
2024/01/15 00:14:35;;;;;;;8.27;1.60;;;5.40;99.90;;;;;;5067788;28;20119;-77
2024/01/15 00:17:01;;;;;;;12.65;2.20;;;5.50;99.90;;;;;;5033250;28;20512;-79
2024/01/15 00:19:27;;;;;;;14.48;2.08;;;4.40;99.90;;;;;;5011369;28;20049;-78
2024/01/15 00:21:52;;;;;;;8.50;1.50;;;4.60;99.90;;;;;;5101332;28;20045;-80
2024/01/15 00:24:19;;;;;;;8.00;2.00;;;5.60;99.90;;;;;;5052172;28;20055;-79
2024/01/15 00:26:44;;;;;;;9.20;1.83;;;5.20;99.90;;;;;;5069659;28;20123;-81
2024/01/15 00:29:10;;;;;;;9.80;1.60;;;5.70;99.90;;;;;;5068244;28;20145;-77
2024/01/15 00:31:36;;;;;;;6.40;1.35;;;5.80;99.90;;;;;;5052832;28;20053;-76
2024/01/15 00:34:02;;;;;;;6.65;1.80;;;5.10;99.90;;;;;;5052547;28;20400;-78
2024/01/15 00:36:27;;;;;;;5.75;1.50;;;5.80;99.90;;;;;;5093243;28;20040;-76
2024/01/15 00:38:54;;;;;;;5.47;1.38;;;5.90;99.90;;;;;;5052330;28;20056;-79
2024/01/15 00:41:20;;;;;;;7.15;1.67;;;5.50;99.90;;;;;;5051367;28;20044;-76
2024/01/15 00:43:46;;;;;;;6.10;1.73;;;4.70;99.90;;;;;;5069882;28;20647;-81
2024/01/15 00:46:12;;;;;;;8.00;2.63;;;4.50;99.90;;;;;;5066165;28;20098;-76
2024/01/15 00:48:38;;;;;;;10.15;1.70;;;5.90;99.90;;;;;;5053446;28;20448;-78
2024/01/15 00:51:07;;;;;;;7.10;1.63;;;5.80;99.90;;;;;;5051384;28;20032;-76
2024/01/15 00:53:33;;;;;;;10.15;2.28;;;5.90;99.90;;;;;;5053356;28;20400;-76
2024/01/15 00:55:58;;;;;;;10.45;2.22;;;5.10;99.90;;;;;;5052165;28;20055;-79
2024/01/15 00:58:24;;;;;;;10.23;1.83;;;5.70;99.90;;;;;;5067649;28;20048;-76
2024/01/15 01:00:49;;;;;;;7.00;2.45;;;4.80;99.90;;;;;;5019079;28;20075;-80
2024/01/15 01:03:15;;;;;;;13.23;2.20;;;4.90;99.90;;;;;;5068378;28;20041;-78
2024/01/15 01:05:41;;;;;;;9.35;2.22;;;4.80;99.90;;;;;;5052428;28;20040;-81
2024/01/15 01:08:07;;;;;;;13.80;2.38;;;5.10;99.90;;;;;;5049829;28;20057;-79
2024/01/15 01:10:32;;;;;;;12.32;1.95;;;4.90;99.90;;;;;;5069158;28;20040;-77
2024/01/15 01:12:58;;;;;;;9.48;2.17;;;5.90;99.90;;;;;;5051898;28;20509;-79
2024/01/15 01:15:24;;;;;;;10.75;2.88;;;5.30;99.90;;;;;;5068653;28;20052;-74
2024/01/15 01:17:50;;;;;;;11.07;2.65;;;5.00;99.90;;;;;;5048610;28;20071;-72
2024/01/15 01:20:16;;;;;;;8.20;2.50;;;6.10;99.90;;;;;;5035581;28;20081;-78
2024/01/15 01:22:41;;;;;;;12.45;2.63;;;6.10;99.90;;;;;;5068282;28;20103;-78
2024/01/15 01:25:07;;;;;;;17.17;3.10;;;5.50;99.90;;;;;;5050757;28;20043;-79
2024/01/15 01:27:33;;;;;;;15.68;3.60;;;6.00;99.90;;;;;;5033549;28;20033;-73
2024/01/15 01:29:59;;;;;;;10.68;3.05;;;5.10;99.90;;;;;;5067296;28;20062;-77
2024/01/15 01:32:25;;;;;;;15.32;2.90;;;5.10;99.90;;;;;;5051383;28;20389;-78
2024/01/15 01:34:50;;;;;;;11.48;3.10;;;5.70;99.90;;;;;;5069107;28;20040;-77
2024/01/15 01:37:16;;;;;;;14.15;3.00;;;6.20;99.90;;;;;;5049373;28;20044;-73
2024/01/15 01:39:43;;;;;;;19.45;3.30;;;5.20;99.90;;;;;;5031363;28;20090;-74
2024/01/15 01:42:09;;;;;;;19.02;3.35;;;5.90;99.90;;;;;;5049909;28;20044;-73
2024/01/15 01:44:34;;;;;;;19.17;3.33;;;6.30;99.90;;;;;;5068795;28;20039;-76
2024/01/15 01:47:00;;;;;;;15.43;3.40;;;5.90;99.90;;;;;;5051145;28;20047;-75
2024/01/15 01:49:29;;;;;;;16.45;3.42;;;6.30;99.90;;;;;;5067390;28;20044;-76
2024/01/15 01:52:01;;;;;;;18.30;3.53;;;6.00;99.90;;;;;;5033825;28;20420;-76
2024/01/15 01:54:29;;;;;;;11.55;3.35;;;5.20;99.90;;;;;;5050723;28;20040;-78
2024/01/15 01:56:56;;;;;;;19.55;3.00;;;5.20;99.90;;;;;;5050747;28;20037;-77
2024/01/15 01:59:23;;;;;;;13.30;3.30;;;5.20;99.90;;;;;;5044455;28;20086;-77
2024/01/15 02:01:50;;;;;;;16.83;2.88;;;5.00;99.90;;;;;;5051113;28;20046;-75
2024/01/15 02:04:17;;;;;;;14.45;3.08;;;5.30;99.90;;;;;;5066375;28;20509;-80
2024/01/15 02:06:42;;;;;;;14.95;3.42;;;6.60;99.90;;;;;;5049382;28;20041;-79
2024/01/15 02:09:09;;;;;;;16.55;3.10;;;5.90;99.90;;;;;;5066821;28;20043;-80
2024/01/15 02:11:35;;;;;;;15.27;2.70;;;6.60;99.90;;;;;;5050597;28;20044;-76
2024/01/15 02:14:02;;;;;;;16.92;3.10;;;5.10;99.90;;;;;;5050124;28;20036;-76
2024/01/15 02:16:28;;;;;;;23.75;3.65;;;5.00;99.90;;;;;;5065188;28;20368;-77
2024/01/15 02:18:53;;;;;;;23.20;4.07;;;5.00;99.90;;;;;;5048603;28;20055;-79
2024/01/15 02:21:19;;;;;;;22.20;3.53;;;5.00;99.90;;;;;;5050576;28;20036;-77
2024/01/15 02:23:45;;;;;;;15.63;3.50;;;6.70;99.90;;;;;;5042173;28;20033;-79
2024/01/15 02:26:10;;;;;;;18.00;3.20;;;6.50;99.90;;;;;;5066807;28;20044;-77
2024/01/15 02:28:36;;;;;;;18.67;3.17;;;5.10;99.90;;;;;;5034374;28;20515;-80
2024/01/15 02:31:02;;;;;;;16.88;3.58;;;5.00;99.90;;;;;;5052163;28;20484;-78
2024/01/15 02:33:28;;;;;;;16.15;3.72;;;5.30;99.90;;;;;;5067876;28;20048;-80
2024/01/15 02:35:53;;;;;;;23.35;3.30;;;6.30;99.90;;;;;;5068074;28;20040;-79
2024/01/15 02:38:19;;;;;;;20.90;3.42;;;6.50;99.90;;;;;;5065458;28;20044;-77
2024/01/15 02:40:45;;;;;;;20.25;3.03;;;5.30;99.90;;;;;;5031573;28;20045;-78
2024/01/15 02:43:11;;;;;;;16.83;3.70;;;6.50;99.90;;;;;;5035343;28;20094;-75
2024/01/15 02:45:37;;;;;;;14.63;2.63;;;6.60;99.90;;;;;;5069408;28;20416;-73
2024/01/15 02:48:03;;;;;;;13.25;2.30;;;6.40;99.90;;;;;;5051690;28;20033;-74
2024/01/15 02:50:29;;;;;;;9.88;1.90;;;6.60;99.90;;;;;;5054555;28;20037;-77
2024/01/15 02:52:54;;;;;;;8.43;1.90;;;6.50;99.90;;;;;;5053386;28;20473;-73
2024/01/15 02:55:20;;;;;;;13.43;2.55;;;4.80;99.90;;;;;;5052259;28;20033;-75
2024/01/15 02:57:46;;;;;;;8.48;1.85;;;6.70;99.90;;;;;;5070064;28;20036;-76
2024/01/15 03:00:12;;;;;;;9.82;2.03;;;6.60;99.90;;;;;;5054227;28;20044;-76
2024/01/15 03:02:44;;;;;;;8.10;2.00;;;5.00;99.90;;;;;;5071044;28;20043;-75
2024/01/15 03:05:10;;;;;;;7.53;1.88;;;6.40;99.90;;;;;;5068641;28;20041;-74
2024/01/15 03:07:36;;;;;;;5.97;1.48;;;6.20;99.90;;;;;;5036590;28;20032;-75
2024/01/15 03:10:02;;;;;;;9.73;1.77;;;6.80;99.90;;;;;;5036646;28;20475;-76
2024/01/15 03:12:28;;;;;;;6.82;1.58;;;5.40;99.90;;;;;;5071223;28;20048;-75
2024/01/15 03:14:54;;;;;;;8.88;1.73;;;6.50;99.90;;;;;;5053832;28;20477;-74
2024/01/15 03:17:19;;;;;;;6.43;1.67;;;4.70;99.90;;;;;;5069578;28;20041;-75
2024/01/15 03:19:45;;;;;;;12.20;2.47;;;4.70;99.90;;;;;;5051115;28;20067;-74
2024/01/15 03:22:11;;;;;;;10.25;1.88;;;4.70;99.90;;;;;;5037013;28;20098;-73
2024/01/15 03:24:37;;;;;;;10.07;2.08;;;6.80;99.90;;;;;;5053823;28;20040;-77
2024/01/15 03:27:03;;;;;;;7.93;1.65;;;6.60;99.90;;;;;;5051133;28;20033;-81
2024/01/15 03:29:28;;;;;;;12.02;1.92;;;6.60;99.90;;;;;;5067084;28;20123;-75
2024/01/15 03:31:54;;;;;;;9.63;1.98;;;5.90;99.90;;;;;;5070991;28;20049;-79
2024/01/15 03:34:20;;;;;;;15.52;3.22;;;6.60;99.90;;;;;;5034019;28;20066;-74
2024/01/15 03:36:45;;;;;;;11.68;2.17;;;5.80;99.90;;;;;;5089732;27;20048;-76
2024/01/15 03:39:11;;;;;;;11.52;2.53;;;6.30;99.90;;;;;;5055436;28;20048;-77
2024/01/15 03:41:37;;;;;;;16.05;2.60;;;4.90;99.90;;;;;;5070609;28;20052;-76
2024/01/15 03:44:03;;;;;;;9.30;2.35;;;5.80;99.90;;;;;;5054356;28;20037;-75
2024/01/15 03:46:28;;;;;;;12.13;2.60;;;6.50;99.90;;;;;;5052670;28;20148;-75
2024/01/15 03:48:54;;;;;;;17.20;3.22;;;5.60;99.90;;;;;;5070343;28;20615;-78
2024/01/15 03:51:20;;;;;;;11.35;2.45;;;6.50;99.90;;;;;;5070338;28;20355;-75
2024/01/15 03:53:46;;;;;;;17.95;3.13;;;6.60;99.90;;;;;;5069506;28;20040;-80
2024/01/15 03:56:12;;;;;;;18.52;3.67;;;5.20;99.90;;;;;;5052647;28;20033;-73
2024/01/15 03:58:37;;;;;;;20.63;3.67;;;6.60;99.90;;;;;;5051957;28;20059;-75
2024/01/15 04:01:03;;;;;;;19.20;4.13;;;5.10;99.90;;;;;;5051830;28;20033;-77
2024/01/15 04:03:29;;;;;;;17.52;3.88;;;4.90;99.90;;;;;;5052687;28;20052;-74
2024/01/15 04:05:55;;;;;;;22.73;3.97;;;5.20;99.90;;;;;;5070095;28;20402;-76
2024/01/15 04:08:20;;;;;;;18.40;3.33;;;6.90;99.90;;;;;;5068413;28;20420;-75
2024/01/15 04:10:46;;;;;;;20.10;3.80;;;5.60;99.90;;;;;;5069328;28;20036;-75
2024/01/15 04:13:12;;;;;;;18.92;3.65;;;5.30;99.90;;;;;;5051724;28;20126;-74
2024/01/15 04:15:37;;;;;;;13.35;2.97;;;6.70;99.90;;;;;;5069382;28;20102;-75
2024/01/15 04:18:03;;;;;;;16.75;2.80;;;5.40;99.90;;;;;;5069855;28;20063;-76
2024/01/15 04:20:29;;;;;;;11.82;2.90;;;5.30;99.90;;;;;;5068271;28;20448;-78
2024/01/15 04:22:55;;;;;;;10.18;2.88;;;6.30;99.90;;;;;;5050929;28;20036;-74
2024/01/15 04:25:20;;;;;;;10.70;1.98;;;6.30;99.90;;;;;;5069620;28;20040;-74
2024/01/15 04:27:46;;;;;;;11.57;2.60;;;7.10;99.90;;;;;;5036500;28;20060;-75
2024/01/15 04:30:12;;;;;;;11.88;2.30;;;6.50;99.90;;;;;;5068622;28;20040;-73
2024/01/15 04:32:38;;;;;;;12.73;2.25;;;6.90;99.90;;;;;;5068344;28;20481;-75
2024/01/15 04:35:04;;;;;;;12.40;2.10;;;6.40;99.90;;;;;;5052619;28;20051;-74
2024/01/15 04:37:29;;;;;;;10.10;2.10;;;6.00;99.90;;;;;;5052630;28;20655;-75
2024/01/15 04:39:57;;;;;;;13.77;3.22;;;5.70;90.00;;;;;;5068406;28;20040;-75
2024/01/15 04:42:23;;;;;;;10.90;1.95;;;7.20;60.70;;;;;;5067952;28;20044;-76
2024/01/15 04:44:49;;;;;;;12.00;2.00;;;5.10;39.30;;;;;;5062905;28;20040;-76
2024/01/15 04:47:15;;;;;;;8.43;2.33;;;6.80;27.60;;;;;;5069366;28;20044;-74
2024/01/15 04:49:41;;;;;;;8.90;1.95;;;6.80;11.70;;;;;;5067360;28;20070;-78
2024/01/15 04:52:06;;;;;;;9.07;1.80;;;6.90;1.00;;;;;;5068131;28;20113;-76
2024/01/15 04:54:32;;;;;;;6.43;1.92;;;6.50;1.00;;;;;;5051109;28;20050;-77
2024/01/15 04:56:58;;;;;;;9.00;2.17;;;5.90;1.00;;;;;;5032618;28;20045;-76
2024/01/15 04:59:23;;;;;;;7.70;1.80;;;5.50;1.00;;;;;;5062142;28;20098;-81
2024/01/15 05:01:49;;;;;;;10.68;2.05;;;4.80;1.00;;;;;;5068379;28;20037;-82
2024/01/15 05:04:15;;;;;;;11.07;1.80;;;6.20;1.00;;;;;;5066087;28;20500;-77
2024/01/15 05:06:40;;;;;;;8.45;1.88;;;6.60;1.00;;;;;;5068917;28;20068;-75
2024/01/15 05:09:06;;;;;;;7.05;2.03;;;6.90;1.00;;;;;;5051975;28;20135;-78
2024/01/15 05:11:32;;;;;;;7.70;1.95;;;6.20;1.00;;;;;;5067966;28;20037;-78
2024/01/15 05:13:58;;;;;;;6.40;1.75;;;4.60;1.00;;;;;;5068418;28;20033;-73
2024/01/15 05:16:24;;;;;;;9.13;2.00;;;5.10;1.00;;;;;;5067815;28;20070;-76
2024/01/15 05:18:50;;;;;;;7.88;1.92;;;6.60;1.00;;;;;;5067607;28;20094;-75
2024/01/15 05:21:16;;;;;;;9.07;2.42;;;4.80;1.00;;;;;;5067886;28;20037;-76
2024/01/15 05:23:41;;;;;;;9.27;1.98;;;6.50;1.00;;;;;;5052467;28;20450;-75
2024/01/15 05:26:08;;;;;;;10.88;2.47;;;5.70;1.00;;;;;;5050606;28;20071;-77
2024/01/15 05:28:35;;;;;;;14.48;3.45;;;6.70;1.00;;;;;;5051689;28;20059;-76
2024/01/15 05:31:01;;;;;;;12.32;2.45;;;4.80;1.00;;;;;;5052461;28;20120;-76
2024/01/15 05:33:27;;;;;;;8.60;2.50;;;4.70;1.00;;;;;;5068565;28;20131;-75
2024/01/15 05:35:53;;;;;;;15.23;2.42;;;6.50;1.00;;;;;;5050778;28;20036;-75
2024/01/15 05:38:19;;;;;;;13.73;3.20;;;6.60;1.00;;;;;;5068394;28;20052;-74
2024/01/15 05:40:45;;;;;;;9.35;2.35;;;6.90;1.00;;;;;;5051597;28;20075;-73
2024/01/15 05:43:10;;;;;;;8.27;2.40;;;6.80;1.00;;;;;;5051985;28;20045;-72
2024/01/15 05:45:38;;;;;;;12.38;2.45;;;6.90;1.00;;;;;;5065707;28;20055;-76
2024/01/15 05:48:04;;;;;;;8.50;2.00;;;5.80;1.00;;;;;;5068141;28;20480;-75
2024/01/15 05:50:30;;;;;;;11.35;2.22;;;6.20;1.00;;;;;;5064447;28;20111;-77
2024/01/15 05:52:55;;;;;;;10.32;2.33;;;4.60;1.00;;;;;;5047158;28;20044;-76
2024/01/15 05:55:21;;;;;;;9.50;2.25;;;5.90;1.00;;;;;;5027603;28;20531;-71
2024/01/15 05:57:47;;;;;;;10.50;2.40;;;5.60;1.00;;;;;;5034272;28;20090;-72
2024/01/15 06:00:13;;;;;;;10.88;2.95;;;6.20;1.00;;;;;;5050224;28;20044;-76
2024/01/15 06:02:39;;;;;;;15.25;2.97;;;6.50;1.00;;;;;;5066990;28;20044;-78
2024/01/15 06:05:06;;;;;;;13.20;2.80;;;4.40;1.00;;;;;;5066606;28;20127;-74
2024/01/15 06:07:33;;;;;;;11.07;2.35;;;4.30;1.00;;;;;;5067136;28;20556;-73
2024/01/15 06:09:59;;;;;;;14.55;3.28;;;4.40;1.00;;;;;;5067336;28;20536;-78
2024/01/15 06:12:24;;;;;;;15.30;2.92;;;5.20;1.00;;;;;;5067120;28;20052;-74
2024/01/15 06:14:50;;;;;;;16.92;3.38;;;6.50;1.00;;;;;;5066785;28;20125;-77
2024/01/15 06:17:16;;;;;;;14.32;3.03;;;4.30;1.00;;;;;;5048281;28;20559;-77
2024/01/15 06:19:41;;;;;;;14.63;3.60;;;4.80;1.00;;;;;;5067298;28;20040;-75
2024/01/15 06:22:07;;;;;;;13.52;3.30;;;4.60;1.00;;;;;;5066223;28;20397;-75
2024/01/15 06:24:33;;;;;;;10.60;3.13;;;4.20;2.20;;;;;;5049844;28;20048;-75
2024/01/15 06:26:59;;;;;;;13.13;3.13;;;6.10;17.90;;;;;;5031766;28;20054;-78
2024/01/15 06:29:26;;;;;;;11.88;3.05;;;4.50;29.30;;;;;;5050595;28;20036;-79
2024/01/15 06:31:51;;;;;;;17.75;3.85;;;5.00;31.50;;;;;;5050062;28;20044;-82
2024/01/15 06:34:17;;;;;;;13.98;3.03;;;6.10;30.10;;;;;;5050768;28;20073;-77
2024/01/15 06:36:43;;;;;;;21.65;4.05;;;4.30;49.70;;;;;;5064059;28;20104;-75
2024/01/15 06:39:09;;;;;;;13.20;2.50;;;5.20;56.60;;;;;;5050615;28;20072;-76
2024/01/15 06:41:43;;;;;;;16.13;3.28;;;4.10;52.90;;;;;;5064664;28;20055;-74
2024/01/15 06:44:11;;;;;;;20.70;3.72;;;6.20;61.00;;;;;;5048831;28;20036;-79
2024/01/15 06:46:42;;;;;;;17.85;3.35;;;6.00;76.80;;;;;;5066353;28;20036;-75
2024/01/15 06:49:08;;;;;;;13.38;2.75;;;6.70;95.60;;;;;;5066815;28;20042;-73
2024/01/15 06:51:34;;;;;;;14.00;3.00;;;4.50;99.90;;;;;;5067109;28;20444;-77
2024/01/15 06:54:00;;;;;;;13.98;3.83;;;6.20;99.90;;;;;;5070960;28;20545;-76
2024/01/15 06:56:25;;;;;;;12.70;3.05;;;6.40;99.90;;;;;;5034594;28;20167;-76
2024/01/15 06:58:51;;;;;;;16.88;3.13;;;5.30;99.90;;;;;;5053424;28;20044;-75
2024/01/15 07:01:17;;;;;;;14.65;2.70;;;6.10;99.90;;;;;;5049096;28;20034;-76
2024/01/15 07:03:42;;;;;;;14.38;2.85;;;4.50;99.90;;;;;;5049401;28;20044;-78
2024/01/15 07:06:08;;;;;;;10.07;3.42;;;4.60;99.90;;;;;;5065679;28;20117;-77
2024/01/15 07:08:34;;;;;;;16.65;2.90;;;4.40;99.90;;;;;;5066200;28;20457;-76
2024/01/15 07:11:03;;;;;;;13.55;3.08;;;6.10;99.90;;;;;;5033796;28;20036;-76
2024/01/15 07:13:28;;;;;;;19.67;5.07;;;6.10;99.90;;;;;;5063869;28;20150;-78
2024/01/15 07:15:54;;;;;;;15.43;3.35;;;5.00;99.90;;;;;;5067472;28;20131;-78
2024/01/15 07:18:20;;;;;;;12.68;2.75;;;5.20;99.90;;;;;;5049803;28;20047;-75
2024/01/15 07:20:45;;;;;;;10.98;2.95;;;5.10;99.90;;;;;;5066180;28;20040;-76
2024/01/15 07:23:12;;;;;;;13.20;2.70;;;6.00;99.90;;;;;;5033768;28;20485;-76
2024/01/15 07:25:37;;;;;;;9.85;2.03;;;6.00;99.90;;;;;;5066747;28;20402;-78
2024/01/15 07:28:03;;;;;;;12.13;2.25;;;4.70;99.90;;;;;;5035157;28;20045;-76
2024/01/15 07:30:29;;;;;;;7.22;2.10;;;6.20;99.90;;;;;;5037255;28;20056;-80
2024/01/15 07:32:55;;;;;;;9.93;2.30;;;6.00;99.90;;;;;;5021195;28;20036;-77
2024/01/15 07:35:21;;;;;;;8.00;1.40;;;6.00;99.90;;;;;;5070754;28;20432;-78
2024/01/15 07:37:46;;;;;;;15.00;2.58;;;4.70;99.90;;;;;;5071108;28;20109;-79
2024/01/15 07:40:12;;;;;;;10.93;2.55;;;5.90;99.90;;;;;;5054425;28;20051;-79
2024/01/15 07:42:38;;;;;;;11.55;2.30;;;4.60;99.90;;;;;;5075251;28;20492;-76
2024/01/15 07:45:05;;;;;;;15.10;2.53;;;6.40;99.90;;;;;;5057489;28;20097;-80
2024/01/15 07:47:31;;;;;;;12.07;2.78;;;4.70;99.90;;;;;;5090414;28;20118;-78
2024/01/15 07:49:56;;;;;;;13.13;2.33;;;4.60;99.90;;;;;;5091315;28;20126;-77
2024/01/15 07:52:22;;;;;;;15.13;3.13;;;5.50;99.90;;;;;;5078143;28;20102;-76
2024/01/15 07:54:48;;;;;;;14.73;3.22;;;4.40;99.90;;;;;;5054206;28;20044;-81
2024/01/15 07:57:13;;;;;;;13.65;3.53;;;4.40;99.90;;;;;;5058093;28;20119;-79
2024/01/15 07:59:40;;;;;;;10.05;2.63;;;5.80;99.90;;;;;;5064915;28;20040;-75
2024/01/15 08:02:06;;;;;;;11.13;2.45;;;5.70;99.90;;;;;;5070153;28;20052;-78
2024/01/15 08:04:32;;;;;;;9.70;2.60;;;6.00;99.90;;;;;;5053523;28;20090;-77
2024/01/15 08:06:57;;;;;;;10.88;2.45;;;6.00;99.90;;;;;;5069869;28;20051;-81
2024/01/15 08:09:26;;;;;;;14.07;2.85;;;6.10;99.90;;;;;;5070163;28;20106;-77
2024/01/15 08:11:52;;;;;;;7.68;2.17;;;4.50;99.90;;;;;;5070491;28;20446;-77
2024/01/15 08:14:18;;;;;;;13.98;3.22;;;6.00;99.90;;;;;;5053508;28;20132;-80
2024/01/15 08:16:43;;;;;;;11.73;2.90;;;4.50;99.90;;;;;;5053565;28;20386;-78
2024/01/15 08:19:09;;;;;;;13.10;2.40;;;4.60;99.90;;;;;;5053627;28;20047;-77
2024/01/15 08:21:35;;;;;;;13.90;2.95;;;6.10;99.90;;;;;;5069650;28;20079;-78
2024/01/15 08:24:02;;;;;;;12.32;2.67;;;4.90;99.90;;;;;;5053334;28;20527;-78
2024/01/15 08:26:32;;;;;;;12.05;2.70;;;5.40;99.90;;;;;;5053150;28;20048;-78
2024/01/15 08:28:58;;;;;;;11.57;2.30;;;5.60;99.90;;;;;;5070205;28;20397;-79
2024/01/15 08:31:24;;;;;;;12.77;2.28;;;4.70;99.90;;;;;;5052973;28;20121;-76
2024/01/15 08:33:50;;;;;;;12.93;2.75;;;5.80;99.90;;;;;;5069768;28;20060;-75
2024/01/15 08:36:16;;;;;;;12.55;2.53;;;6.00;99.90;;;;;;5053275;28;20063;-81
2024/01/15 08:38:42;;;;;;;12.43;2.53;;;5.00;99.90;;;;;;5052132;28;20040;-75
2024/01/15 08:41:09;;;;;;;9.88;2.70;;;4.60;99.90;;;;;;5069388;28;20070;-76
2024/01/15 08:43:35;;;;;;;11.63;3.15;;;5.20;99.90;;;;;;5077120;28;20052;-77
2024/01/15 08:46:01;;;;;;;11.40;2.30;;;4.60;99.90;;;;;;5036284;28;20040;-79
2024/01/15 08:48:27;;;;;;;10.25;3.28;;;4.70;99.90;;;;;;5068933;28;20044;-75
2024/01/15 08:50:54;;;;;;;6.28;1.88;;;4.80;99.90;;;;;;5052347;28;20028;-81
2024/01/15 08:53:20;;;;;;;9.15;1.70;;;5.00;99.90;;;;;;5052065;28;20040;-79
2024/01/15 08:55:46;;;;;;;9.02;2.17;;;6.20;99.90;;;;;;5052095;28;20117;-77
2024/01/15 08:58:12;;;;;;;7.55;2.42;;;5.70;99.90;;;;;;5035971;28;20049;-81
2024/01/15 09:00:37;;;;;;;9.15;2.35;;;6.00;99.90;;;;;;5052501;28;20405;-77
2024/01/15 09:03:04;;;;;;;7.38;1.90;;;6.20;99.90;;;;;;5052649;28;20562;-77
2024/01/15 09:05:30;;;;;;;7.97;1.77;;;5.90;99.90;;;;;;5052179;28;20086;-78
2024/01/15 09:07:56;;;;;;;6.32;1.38;;;4.60;99.90;;;;;;5052587;28;20083;-81
2024/01/15 09:10:22;;;;;;;6.85;1.50;;;4.60;99.90;;;;;;5052393;28;20043;-79
2024/01/15 09:12:49;;;;;;;5.15;1.30;;;4.70;99.90;;;;;;5051352;28;20036;-78
2024/01/15 09:15:15;;;;;;;7.15;1.33;;;5.80;99.90;;;;;;5051440;28;20036;-79
2024/01/15 09:17:40;;;;;;;9.07;1.60;;;5.90;99.90;;;;;;5067926;28;20052;-79
2024/01/15 09:20:07;;;;;;;8.27;1.90;;;5.90;99.90;;;;;;5068013;28;20037;-78
2024/01/15 09:22:33;;;;;;;8.07;1.83;;;5.50;99.90;;;;;;5051565;28;20049;-75
2024/01/15 09:24:59;;;;;;;12.65;2.70;;;4.80;99.90;;;;;;5068259;28;20044;-77
2024/01/15 09:27:27;;;;;;;7.60;2.17;;;5.00;99.90;;;;;;5051693;28;20040;-79
2024/01/15 09:29:53;;;;;;;7.45;2.35;;;4.80;99.90;;;;;;5036096;28;20082;-78
2024/01/15 09:32:19;;;;;;;11.73;2.20;;;6.10;99.90;;;;;;5034763;28;20469;-77
2024/01/15 09:34:46;;;;;;;9.57;2.30;;;6.10;99.90;;;;;;5068050;28;20043;-79
2024/01/15 09:37:14;;;;;;;7.63;2.45;;;6.10;99.90;;;;;;5068229;28;20036;-78
2024/01/15 09:39:39;;;;;;;7.50;2.17;;;5.80;99.90;;;;;;5067637;28;20044;-79
2024/01/15 09:42:05;;;;;;;13.48;2.28;;;4.90;99.90;;;;;;5051762;28;20078;-78
2024/01/15 09:44:31;;;;;;;6.35;1.92;;;5.10;99.90;;;;;;5051159;28;20032;-76
2024/01/15 09:46:57;;;;;;;8.27;1.95;;;6.30;99.90;;;;;;5068773;28;20695;-80
2024/01/15 09:49:23;;;;;;;12.65;2.30;;;4.90;99.90;;;;;;5068328;28;20037;-78
2024/01/15 09:51:49;;;;;;;11.57;2.42;;;4.90;99.90;;;;;;5051357;28;20036;-79
2024/01/15 09:54:17;;;;;;;11.35;2.13;;;6.50;99.90;;;;;;5051421;28;20047;-78
2024/01/15 09:56:46;;;;;;;10.65;2.50;;;6.40;99.90;;;;;;5068099;28;20115;-76
2024/01/15 09:59:19;;;;;;;10.20;2.28;;;5.30;99.90;;;;;;5068259;28;20490;-80
2024/01/15 10:01:47;;;;;;;10.57;1.88;;;7.30;99.90;;;;;;5066430;28;20040;-78
2024/01/15 10:04:13;;;;;;;11.40;2.47;;;6.90;99.90;;;;;;5065482;28;20036;-78
2024/01/15 10:06:41;;;;;;;6.88;1.85;;;8.00;99.90;;;;;;5067727;28;20049;-73
2024/01/15 10:09:07;;;;;;;11.02;2.58;;;7.40;99.90;;;;;;5051392;28;20045;-77
2024/01/15 10:11:33;;;;;;;10.60;2.42;;;6.90;75.60;;;;;;5051202;28;20049;-80
2024/01/15 10:13:59;;;;;;;7.85;2.10;;;6.50;29.50;;;;;;5050785;28;20059;-77
2024/01/15 10:16:26;;;;;;;4.72;1.80;;;7.20;60.20;;;;;;5050359;28;20097;-81
2024/01/15 10:18:51;;;;;;;12.32;2.28;;;5.80;60.50;;;;;;5050448;28;20083;-76
2024/01/15 10:21:17;;;;;;;11.10;2.10;;;6.20;99.90;;;;;;5018388;28;20722;-79
2024/01/15 10:23:44;;;;;;;10.10;2.90;;;6.60;99.90;;;;;;5041103;28;20037;-76
2024/01/15 10:26:11;;;;;;;10.35;2.33;;;5.20;99.90;;;;;;5067267;28;20059;-80
2024/01/15 10:28:37;;;;;;;7.90;2.17;;;5.10;99.90;;;;;;5050571;28;20047;-78
2024/01/15 10:31:04;;;;;;;11.55;2.03;;;6.70;99.90;;;;;;5033786;28;20535;-76
2024/01/15 10:33:30;;;;;;;13.48;2.17;;;5.70;99.90;;;;;;5064479;28;20044;-76
2024/01/15 10:36:00;;;;;;;8.82;1.70;;;5.10;99.90;;;;;;5041148;28;20047;-75
2024/01/15 10:38:26;;;;;;;13.13;2.33;;;5.10;99.90;;;;;;5025303;28;20124;-79
2024/01/15 10:40:53;;;;;;;11.70;2.72;;;6.60;99.90;;;;;;5047277;28;20044;-77
2024/01/15 10:43:20;;;;;;;12.93;2.95;;;6.80;99.90;;;;;;5057572;28;20389;-76
2024/01/15 10:45:47;;;;;;;10.52;2.67;;;6.80;99.90;;;;;;5067692;28;20058;-77
2024/01/15 10:48:13;;;;;;;14.15;3.00;;;6.60;99.90;;;;;;5051392;28;20048;-79
2024/01/15 10:50:39;;;;;;;13.30;3.78;;;8.60;99.90;;;;;;5050184;28;20033;-79
2024/01/15 10:53:05;;;;;;;12.65;3.60;;;9.00;99.90;;;;;;5046861;28;20113;-78
2024/01/15 10:55:33;;;;;;;12.48;4.93;;;6.70;99.90;;;;;;5067738;28;20049;-80
2024/01/15 10:58:00;;;;;;;8.27;2.08;;;8.30;99.90;;;;;;5067509;28;20056;-77
2024/01/15 11:00:27;;;;;;;5.50;2.03;;;5.80;99.90;;;;;;5051342;28;20041;-78
2024/01/15 11:02:56;;;;;;;7.57;1.70;;;7.20;99.90;;;;;;5049136;28;20040;-79
2024/01/15 11:05:22;;;;;;;6.07;1.35;;;5.50;99.90;;;;;;5054822;28;20054;-77
2024/01/15 11:07:55;;;;;;;5.15;1.23;;;7.00;99.90;;;;;;5070891;28;20070;-77
2024/01/15 11:10:45;;;;;;;4.55;1.05;;;6.40;99.90;;;;;;5054956;28;20071;-79
2024/01/15 11:13:46;;;;;;;7.68;1.77;;;6.80;99.90;;;;;;5066809;28;20083;-80
2024/01/15 11:16:13;;;;;;;3.50;1.00;;;6.70;99.90;;;;;;5013548;28;20073;-78
2024/01/15 11:19:03;;;;;;;5.95;1.23;;;6.40;99.90;;;;;;5069442;28;20040;-76
2024/01/15 11:21:32;;;;;;;4.10;1.15;;;5.20;99.90;;;;;;5062684;28;20060;-78
2024/01/15 11:24:00;;;;;;;6.63;1.63;;;6.80;99.90;;;;;;5053886;28;20045;-78
2024/01/15 11:26:32;;;;;;;3.58;1.30;;;6.80;99.90;;;;;;5050668;28;20028;-75
2024/01/15 11:29:00;;;;;;;6.68;1.17;;;5.20;99.90;;;;;;5068946;28;20115;-76
2024/01/15 11:31:38;;;;;;;6.50;1.40;;;5.90;99.90;;;;;;5066582;28;20029;-80
2024/01/15 11:34:08;;;;;;;8.02;1.42;;;5.40;99.90;;;;;;5062311;28;20422;-79
2024/01/15 11:36:49;;;;;;;4.53;1.20;;;6.00;99.90;;;;;;5065394;28;20040;-78
2024/01/15 11:39:27;;;;;;;2.67;0.90;;;5.50;99.90;;;;;;5084866;28;20040;-77
2024/01/15 11:41:57;;;;;;;2.33;0.70;;;5.90;99.90;;;;;;5065044;28;20040;-78
2024/01/15 11:44:23;;;;;;;1.55;0.60;;;6.50;99.90;;;;;;5053613;28;20064;-76
2024/01/15 11:47:09;;;;;;;2.42;0.60;;;7.10;99.90;;;;;;5042077;28;20064;-83
2024/01/15 11:49:41;;;;;;;2.35;0.60;;;6.70;72.50;;;;;;5049496;28;20080;-78
2024/01/15 11:52:10;;;;;;;3.60;0.95;;;6.20;64.10;;;;;;5064910;28;20044;-79
2024/01/15 11:54:38;;;;;;;3.63;0.90;;;6.90;61.70;;;;;;5069655;28;20137;-76
2024/01/15 11:57:13;;;;;;;4.97;0.98;;;5.30;99.30;;;;;;5059279;28;20485;-77
2024/01/15 11:59:39;;;;;;;5.95;0.90;;;7.10;99.90;;;;;;5078493;28;20043;-77
2024/01/15 12:02:05;;;;;;;6.55;1.20;;;6.60;99.90;;;;;;5071111;28;20143;-76
2024/01/15 12:04:31;;;;;;;3.00;1.27;;;6.90;99.90;;;;;;5050623;28;20067;-74
2024/01/15 12:06:56;;;;;;;3.08;0.80;;;7.00;99.90;;;;;;5031768;28;20396;-80
2024/01/15 12:09:22;;;;;;;2.55;0.50;;;6.60;99.90;;;;;;5032460;28;20099;-77
2024/01/15 12:11:58;;;;;;;1.77;0.60;;;6.40;99.90;;;;;;5073152;28;20508;-81
2024/01/15 12:14:24;;;;;;;4.20;0.88;;;5.80;99.90;;;;;;5065235;28;20127;-82
2024/01/15 12:16:50;;;;;;;4.35;1.02;;;5.20;99.90;;;;;;5046680;28;20594;-81
2024/01/15 12:19:16;;;;;;;1.95;0.80;;;6.50;99.90;;;;;;5069507;28;20036;-81
2024/01/15 12:21:42;;;;;;;2.70;0.80;;;5.50;99.90;;;;;;5052695;28;20059;-78
2024/01/15 12:24:08;;;;;;;4.03;0.68;;;5.90;99.90;;;;;;5055958;28;20152;-79
2024/01/15 12:26:34;;;;;;;3.10;1.02;;;4.90;99.90;;;;;;5057235;28;20611;-76
2024/01/15 12:29:02;;;;;;;4.10;1.13;;;5.40;99.90;;;;;;5077206;28;20044;-78
2024/01/15 12:31:30;;;;;;;3.72;1.17;;;5.70;99.90;;;;;;5064471;28;20037;-77
2024/01/15 12:33:56;;;;;;;6.65;1.67;;;5.20;99.90;;;;;;5048582;28;20041;-80
2024/01/15 12:36:22;;;;;;;9.60;1.48;;;5.20;99.90;;;;;;5051583;28;20043;-77
2024/01/15 12:38:47;;;;;;;6.38;1.50;;;5.90;99.90;;;;;;5078976;28;20040;-76
2024/01/15 12:41:13;;;;;;;10.57;2.38;;;5.40;99.90;;;;;;5035628;28;20102;-76
2024/01/15 12:43:40;;;;;;;10.73;2.03;;;5.80;99.90;;;;;;5036684;28;20079;-77
2024/01/15 12:46:06;;;;;;;11.98;2.20;;;5.80;99.90;;;;;;5062911;28;20040;-77
2024/01/15 12:48:32;;;;;;;8.85;1.80;;;5.80;99.90;;;;;;5019093;28;20037;-77